Time;durP1;ratioP1;P1;durP2;ratioP2;P2;SDS_P1;SDS_P2;PMS_P1;PMS_P2;Temp;Humidity;BMP_temperature;BMP_pressure;BME280_temperature;BME280_humidity;BME280_pressure;Samples;Min_cycle;Max_cycle;Signal;HPM_P1;HPM_P2
2022/05/23 00:00:51;;;;;;;2.97;1.93;;;18.20;85.60;;;;;;4977652;28;20429;-93
2022/05/23 00:03:18;;;;;;;2.20;2.00;;;18.10;86.40;;;;;;4998725;28;20426;-91
2022/05/23 00:05:44;;;;;;;2.13;1.93;;;18.10;86.30;;;;;;4978047;28;20966;-91
2022/05/23 00:08:10;;;;;;;2.40;1.70;;;18.00;86.60;;;;;;4977303;28;20499;-91
2022/05/23 00:10:36;;;;;;;2.03;1.83;;;17.90;86.70;;;;;;4977913;28;20421;-91
2022/05/23 00:13:02;;;;;;;1.20;1.10;;;17.90;86.80;;;;;;4981174;28;20803;-92
2022/05/23 00:15:28;;;;;;;3.43;1.97;;;17.90;87.00;;;;;;4981484;28;20488;-92
2022/05/23 00:17:55;;;;;;;1.60;1.50;;;17.80;86.90;;;;;;5000214;28;20433;-91
2022/05/23 00:20:23;;;;;;;2.10;1.90;;;17.80;87.00;;;;;;4982205;28;20483;-92
2022/05/23 00:22:50;;;;;;;3.63;2.57;;;17.70;86.90;;;;;;4981544;28;20548;-91
2022/05/23 00:25:16;;;;;;;2.13;1.77;;;17.70;86.90;;;;;;4981696;28;20421;-92
2022/05/23 00:27:43;;;;;;;1.40;1.30;;;17.70;86.90;;;;;;4997055;28;20428;-91
2022/05/23 00:30:19;;;;;;;2.23;2.03;;;17.60;86.90;;;;;;5002792;28;20497;-91
2022/05/23 00:35:29;;;;;;;3.10;1.60;;;17.60;87.40;;;;;;5023952;28;20451;-92
2022/05/23 00:37:56;;;;;;;1.53;1.43;;;17.50;87.40;;;;;;5001690;28;20437;-92
2022/05/23 00:40:35;;;;;;;4.13;2.17;;;17.50;87.60;;;;;;5002596;28;20428;-91
2022/05/23 00:43:36;;;;;;;2.40;2.20;;;17.50;88.00;;;;;;5002760;28;20440;-92
2022/05/23 00:46:04;;;;;;;2.10;1.93;;;17.40;88.20;;;;;;4991743;28;20421;-92
2022/05/23 00:48:31;;;;;;;6.20;2.30;;;17.40;88.10;;;;;;5014156;28;20548;-92
2022/05/23 00:51:02;;;;;;;2.00;1.80;;;17.30;88.10;;;;;;5011339;28;20567;-92
2022/05/23 00:53:37;;;;;;;2.57;1.80;;;17.30;88.30;;;;;;5006875;28;20491;-92
2022/05/23 00:56:06;;;;;;;1.87;1.77;;;17.30;88.40;;;;;;5010987;28;20468;-92
2022/05/23 00:58:39;;;;;;;4.90;2.37;;;17.30;88.50;;;;;;5011181;28;20432;-92
2022/05/23 01:01:08;;;;;;;2.90;1.90;;;17.20;88.50;;;;;;5006470;28;20432;-91
2022/05/23 01:03:35;;;;;;;1.63;1.53;;;17.10;88.60;;;;;;5019675;28;20425;-92
2022/05/23 01:06:01;;;;;;;4.57;2.20;;;17.10;88.80;;;;;;5001692;28;20421;-92
2022/05/23 01:08:27;;;;;;;3.60;1.80;;;17.00;88.90;;;;;;5017150;28;20522;-91
2022/05/23 01:10:53;;;;;;;1.90;1.70;;;16.90;89.10;;;;;;4999892;28;20897;-91
2022/05/23 01:13:19;;;;;;;6.60;3.03;;;16.90;89.30;;;;;;5017631;28;20431;-92
2022/05/23 01:15:48;;;;;;;3.70;2.20;;;16.80;89.50;;;;;;4999693;28;21001;-91
2022/05/23 01:18:14;;;;;;;2.70;2.03;;;16.80;89.70;;;;;;5019043;28;20191;-92
2022/05/23 01:20:40;;;;;;;3.13;1.90;;;16.70;89.80;;;;;;5000783;28;20428;-91
2022/05/23 01:23:20;;;;;;;2.00;1.80;;;16.70;90.30;;;;;;4999517;28;20571;-92
2022/05/23 01:25:47;;;;;;;2.90;2.40;;;16.60;90.10;;;;;;5017062;28;20420;-92
2022/05/23 01:28:14;;;;;;;3.30;2.20;;;16.60;90.10;;;;;;4979640;28;20438;-91
2022/05/23 01:30:42;;;;;;;1.93;1.83;;;16.60;90.20;;;;;;4998151;28;20432;-91
2022/05/23 01:33:10;;;;;;;2.10;1.90;;;16.50;90.30;;;;;;4997812;28;20432;-92
2022/05/23 01:35:37;;;;;;;2.50;2.20;;;16.50;90.30;;;;;;4979660;28;20479;-92
2022/05/23 01:38:03;;;;;;;2.10;1.90;;;16.50;90.30;;;;;;4979870;28;20429;-91
2022/05/23 01:40:29;;;;;;;3.57;2.17;;;16.50;90.30;;;;;;4979410;28;20429;-91
2022/05/23 01:42:55;;;;;;;3.00;2.40;;;16.50;90.40;;;;;;4996603;28;20429;-91
2022/05/23 01:45:25;;;;;;;2.33;2.13;;;16.50;90.40;;;;;;4997845;28;20430;-91
2022/05/23 01:47:53;;;;;;;2.20;1.70;;;16.50;90.40;;;;;;4979628;28;20504;-92
2022/05/23 01:50:20;;;;;;;2.33;2.17;;;16.40;90.30;;;;;;4979544;28;20489;-92
2022/05/23 01:52:46;;;;;;;2.63;2.30;;;16.40;90.40;;;;;;4979974;28;20453;-91
2022/05/23 01:55:12;;;;;;;2.70;2.50;;;16.40;90.50;;;;;;4980520;28;20460;-92
2022/05/23 01:57:38;;;;;;;2.60;1.90;;;16.30;90.50;;;;;;4997676;28;20425;-91
2022/05/23 02:02:51;;;;;;;3.67;2.20;;;16.20;90.60;;;;;;4999151;28;20286;-91
2022/05/23 02:05:17;;;;;;;2.43;1.97;;;16.20;90.70;;;;;;4998556;28;20907;-91
2022/05/23 02:07:43;;;;;;;4.93;2.07;;;16.20;90.70;;;;;;4981725;28;20434;-91
2022/05/23 02:10:11;;;;;;;2.50;2.10;;;16.20;90.80;;;;;;4981339;28;20485;-92
2022/05/23 02:12:38;;;;;;;2.90;2.40;;;16.10;90.90;;;;;;4983350;28;20430;-91
2022/05/23 02:15:05;;;;;;;5.33;2.13;;;16.10;90.90;;;;;;4989727;28;20487;-92
2022/05/23 02:17:32;;;;;;;2.43;2.23;;;16.10;91.00;;;;;;4981233;28;20591;-91
2022/05/23 02:19:58;;;;;;;2.77;2.20;;;16.00;91.20;;;;;;4995941;28;20406;-92
2022/05/23 02:22:24;;;;;;;2.27;2.07;;;16.00;91.30;;;;;;4978730;28;20788;-91
2022/05/23 02:24:50;;;;;;;3.67;2.03;;;15.90;91.40;;;;;;4978673;28;20425;-91
2022/05/23 02:27:16;;;;;;;3.60;2.90;;;15.80;91.40;;;;;;4990649;28;20445;-92
2022/05/23 02:29:42;;;;;;;2.57;2.40;;;15.80;91.50;;;;;;4998376;28;20490;-91
2022/05/23 02:32:08;;;;;;;2.67;2.40;;;15.80;91.40;;;;;;5000832;28;20199;-92
2022/05/23 02:34:35;;;;;;;3.13;2.43;;;15.70;91.40;;;;;;4997536;28;20413;-92
2022/05/23 02:37:02;;;;;;;3.30;2.00;;;15.70;91.60;;;;;;5016216;28;20519;-91
2022/05/23 02:39:28;;;;;;;2.80;2.40;;;15.70;91.70;;;;;;4998404;28;20794;-92
2022/05/23 02:41:54;;;;;;;3.07;2.30;;;15.60;91.90;;;;;;5016231;28;20953;-91
2022/05/23 02:44:20;;;;;;;2.63;2.10;;;15.50;91.70;;;;;;4999157;28;20413;-91
2022/05/23 02:46:46;;;;;;;2.53;2.20;;;15.40;91.80;;;;;;5017537;28;20199;-92
2022/05/23 02:49:12;;;;;;;6.87;2.47;;;15.30;91.90;;;;;;5019731;28;20490;-92
2022/05/23 02:51:38;;;;;;;3.80;2.80;;;15.20;92.00;;;;;;5000042;28;20452;-92
2022/05/23 02:54:04;;;;;;;2.40;2.20;;;15.10;92.20;;;;;;5017401;28;20413;-91
2022/05/23 02:56:31;;;;;;;2.43;2.10;;;15.00;92.30;;;;;;5000607;28;20186;-91
2022/05/23 02:58:57;;;;;;;2.93;2.50;;;14.90;92.60;;;;;;5000689;28;20478;-91
2022/05/23 03:01:23;;;;;;;5.60;2.87;;;14.90;92.60;;;;;;5028265;28;20431;-92
2022/05/23 03:03:49;;;;;;;2.80;2.10;;;14.80;92.70;;;;;;5008672;28;20183;-92
2022/05/23 03:06:15;;;;;;;3.77;2.53;;;14.80;92.70;;;;;;5002834;28;20444;-92
2022/05/23 03:08:42;;;;;;;3.03;2.73;;;14.80;92.80;;;;;;5003911;28;20479;-92
2022/05/23 03:11:08;;;;;;;3.00;2.40;;;14.90;92.80;;;;;;5001426;28;20432;-91
2022/05/23 03:13:35;;;;;;;2.70;2.50;;;14.90;92.80;;;;;;5001424;28;20968;-92
2022/05/23 03:16:05;;;;;;;2.70;2.37;;;15.00;92.80;;;;;;5010930;28;20452;-91
2022/05/23 03:18:31;;;;;;;2.60;2.40;;;15.00;92.80;;;;;;5006549;28;20456;-92
2022/05/23 03:21:02;;;;;;;2.63;2.20;;;15.10;92.70;;;;;;4997265;28;20474;-92
2022/05/23 03:29:00;;;;;;;2.47;2.20;;;15.20;92.60;;;;;;4995899;28;20528;-91
2022/05/23 03:31:29;;;;;;;3.10;2.17;;;15.20;92.60;;;;;;4979577;28;20443;-92
2022/05/23 03:33:56;;;;;;;3.03;2.53;;;15.30;92.60;;;;;;4995295;28;20409;-92
2022/05/23 03:36:22;;;;;;;2.93;2.50;;;15.30;92.50;;;;;;4977912;28;20791;-92
2022/05/23 03:38:48;;;;;;;2.60;2.40;;;15.40;92.50;;;;;;4978150;28;20401;-92
2022/05/23 03:41:14;;;;;;;4.00;2.27;;;15.40;92.40;;;;;;4995542;28;20423;-92
2022/05/23 03:43:40;;;;;;;2.90;2.50;;;15.40;92.40;;;;;;4979404;28;20429;-91
2022/05/23 03:46:13;;;;;;;2.37;2.17;;;15.50;92.40;;;;;;4980181;28;20433;-92
2022/05/23 03:48:39;;;;;;;2.93;2.30;;;15.50;92.40;;;;;;4983411;28;20475;-91
2022/05/23 03:51:07;;;;;;;2.70;2.50;;;15.60;92.40;;;;;;4983454;28;20433;-90
2022/05/23 03:53:33;;;;;;;3.70;2.37;;;15.60;92.40;;;;;;5000499;28;20432;-91
2022/05/23 03:55:59;;;;;;;6.33;2.30;;;15.60;92.40;;;;;;4987396;28;20468;-91
2022/05/23 03:58:26;;;;;;;3.30;3.00;;;15.60;92.40;;;;;;5008525;28;20440;-92
2022/05/23 04:00:52;;;;;;;2.53;2.17;;;15.60;92.40;;;;;;4998746;28;20421;-91
2022/05/23 04:03:19;;;;;;;2.53;2.20;;;15.70;92.40;;;;;;4998742;28;20785;-92
2022/05/23 04:05:45;;;;;;;3.03;2.20;;;15.70;92.30;;;;;;4982192;28;20438;-91
2022/05/23 04:08:12;;;;;;;2.57;2.37;;;15.70;92.30;;;;;;4998418;28;20794;-91
2022/05/23 04:10:41;;;;;;;2.40;2.13;;;15.70;92.30;;;;;;4981071;28;20471;-91
2022/05/23 04:13:07;;;;;;;2.53;2.33;;;15.70;92.30;;;;;;4980876;28;20524;-91
2022/05/23 04:15:33;;;;;;;2.73;2.53;;;15.70;92.40;;;;;;4981246;28;20990;-91
2022/05/23 04:17:59;;;;;;;4.33;2.70;;;15.80;92.30;;;;;;4998361;28;20604;-92
2022/05/23 04:20:26;;;;;;;3.33;3.03;;;15.80;92.30;;;;;;4981618;28;20448;-91
2022/05/23 04:22:52;;;;;;;2.67;2.20;;;15.90;92.30;;;;;;5000402;28;20421;-91
2022/05/23 04:25:18;;;;;;;7.47;2.47;;;15.90;92.80;;;;;;4999052;28;20449;-92
2022/05/23 04:27:44;;;;;;;3.20;2.80;;;15.90;92.60;;;;;;4997865;28;20437;-91
2022/05/23 04:30:10;;;;;;;3.03;2.30;;;16.00;92.80;;;;;;5001060;28;20226;-92
2022/05/23 04:35:22;;;;;;;4.63;2.47;;;16.10;93.10;;;;;;5018837;28;20431;-92
2022/05/23 04:37:51;;;;;;;2.40;2.20;;;16.10;92.90;;;;;;5001742;28;20463;-92
2022/05/23 04:40:23;;;;;;;2.93;2.13;;;16.20;92.80;;;;;;5001109;28;20429;-92
2022/05/23 04:42:49;;;;;;;3.03;2.40;;;16.30;92.80;;;;;;5019655;28;20467;-91
2022/05/23 04:45:15;;;;;;;3.03;2.00;;;16.40;92.90;;;;;;5001915;28;20437;-92
2022/05/23 04:50:28;;;;;;;2.60;2.00;;;16.50;93.00;;;;;;5019494;28;20490;-92
2022/05/23 04:52:56;;;;;;;3.67;2.50;;;16.60;93.00;;;;;;4998336;28;20888;-91
2022/05/23 04:55:22;;;;;;;3.57;2.60;;;16.70;93.00;;;;;;5015173;28;20435;-92
2022/05/23 04:57:48;;;;;;;3.00;2.60;;;16.70;93.00;;;;;;4998598;28;21028;-92
2022/05/23 05:00:18;;;;;;;5.27;2.40;;;16.80;92.90;;;;;;4998455;28;20464;-92
2022/05/23 05:02:45;;;;;;;2.10;1.90;;;16.90;92.80;;;;;;5015252;28;20779;-91
2022/05/23 05:05:12;;;;;;;2.90;2.40;;;16.90;92.70;;;;;;5016224;28;20926;-93
2022/05/23 05:07:38;;;;;;;4.43;1.90;;;17.00;92.60;;;;;;4994103;28;20463;-91
2022/05/23 05:10:05;;;;;;;2.97;2.10;;;17.10;92.50;;;;;;4998351;28;20464;-91
2022/05/23 05:12:31;;;;;;;2.33;1.83;;;17.20;92.40;;;;;;4999079;28;20195;-94
2022/05/23 05:14:58;;;;;;;1.70;1.60;;;17.30;92.00;;;;;;5000316;28;20413;-93
2022/05/23 05:17:24;;;;;;;2.40;1.67;;;17.30;91.50;;;;;;4993539;28;20552;-93
2022/05/23 05:19:50;;;;;;;2.97;1.90;;;17.40;91.40;;;;;;4995551;28;20413;-94
2022/05/23 05:22:16;;;;;;;1.53;1.43;;;17.50;90.90;;;;;;4996625;28;20433;-92
2022/05/23 05:24:42;;;;;;;1.70;1.60;;;17.50;90.80;;;;;;4992160;28;20213;-92
2022/05/23 05:27:09;;;;;;;3.43;1.90;;;17.50;90.80;;;;;;4991017;28;20203;-92
2022/05/23 05:29:36;;;;;;;3.30;1.80;;;17.60;90.90;;;;;;4981801;28;20216;-93
2022/05/23 05:32:13;;;;;;;1.53;1.43;;;17.70;91.10;;;;;;4976411;28;20878;-93
2022/05/23 05:34:46;;;;;;;2.10;1.80;;;17.70;91.10;;;;;;5004199;28;20416;-92
2022/05/23 05:37:34;;;;;;;1.70;1.43;;;17.80;91.00;;;;;;4997011;28;20587;-93
2022/05/23 05:40:03;;;;;;;1.67;1.57;;;17.90;90.60;;;;;;4997112;28;20826;-94
2022/05/23 05:42:37;;;;;;;1.57;1.47;;;18.00;90.30;;;;;;4996563;28;20436;-92
2022/05/23 05:45:07;;;;;;;2.00;1.60;;;18.10;90.10;;;;;;4984317;28;21075;-92
2022/05/23 05:47:36;;;;;;;1.63;1.53;;;18.20;90.40;;;;;;4979117;28;20442;-93
2022/05/23 05:50:09;;;;;;;2.07;1.40;;;18.20;90.40;;;;;;4979890;28;20466;-93
2022/05/23 05:52:36;;;;;;;1.60;1.50;;;18.30;90.40;;;;;;4985482;28;20456;-93
2022/05/23 05:55:04;;;;;;;1.60;1.30;;;18.40;91.20;;;;;;5016295;28;20531;-92
2022/05/23 05:57:30;;;;;;;1.43;1.33;;;18.50;90.70;;;;;;4983527;28;20442;-93
2022/05/23 05:59:56;;;;;;;1.40;1.30;;;18.60;89.60;;;;;;4996255;28;20491;-93
2022/05/23 06:02:22;;;;;;;1.83;1.57;;;18.70;87.70;;;;;;4992585;28;21010;-92
2022/05/23 06:04:47;;;;;;;1.40;1.30;;;18.70;87.60;;;;;;4993781;28;20229;-93
2022/05/23 06:13:02;;;;;;;2.00;1.77;;;18.90;87.00;;;;;;4995173;28;20447;-93
2022/05/23 06:15:29;;;;;;;3.70;1.50;;;18.90;86.50;;;;;;4997099;28;20429;-94
2022/05/23 06:17:55;;;;;;;4.23;1.30;;;18.90;86.90;;;;;;5014169;28;20234;-92
2022/05/23 06:20:23;;;;;;;2.10;1.90;;;19.00;87.10;;;;;;4999398;28;20838;-94
2022/05/23 06:22:50;;;;;;;1.20;1.10;;;19.00;87.80;;;;;;4996288;28;20452;-94
2022/05/23 06:25:16;;;;;;;1.63;1.53;;;19.10;87.80;;;;;;4988989;28;20517;-94
2022/05/23 06:27:43;;;;;;;1.50;1.40;;;19.10;86.90;;;;;;4991187;28;20449;-94
2022/05/23 06:30:13;;;;;;;2.43;1.70;;;19.20;86.80;;;;;;4997530;28;20482;-93
2022/05/23 06:32:38;;;;;;;1.70;1.60;;;19.30;87.10;;;;;;5001727;28;20471;-94
2022/05/23 06:35:08;;;;;;;1.77;1.67;;;19.30;86.30;;;;;;5011799;28;20445;-94
2022/05/23 06:37:35;;;;;;;1.40;1.30;;;19.40;86.20;;;;;;5012016;28;20216;-93
2022/05/23 06:40:06;;;;;;;5.00;1.73;;;19.40;87.00;;;;;;4996487;28;20420;-92
2022/05/23 06:42:32;;;;;;;2.37;1.40;;;19.50;86.80;;;;;;4996510;28;20969;-93
2022/05/23 06:44:59;;;;;;;1.60;1.47;;;19.60;85.20;;;;;;5014426;28;20421;-93
2022/05/23 06:47:25;;;;;;;1.70;1.60;;;19.70;86.30;;;;;;4987155;28;20449;-94
2022/05/23 06:49:51;;;;;;;1.60;1.50;;;19.70;84.70;;;;;;5001862;28;20516;-92
2022/05/23 06:52:17;;;;;;;1.20;1.10;;;19.80;84.70;;;;;;5023928;28;20453;-92
2022/05/23 06:54:42;;;;;;;1.60;1.50;;;19.90;85.00;;;;;;4998980;28;20188;-92
2022/05/23 06:57:08;;;;;;;1.40;1.30;;;19.90;84.30;;;;;;5009548;28;20565;-93
2022/05/23 06:59:35;;;;;;;3.40;1.17;;;20.00;84.00;;;;;;4991517;28;20192;-93
2022/05/23 07:02:01;;;;;;;2.60;1.60;;;20.10;83.80;;;;;;5014838;28;20476;-92
2022/05/23 07:12:19;;;;;;;1.90;1.47;;;20.10;84.10;;;;;;4994284;28;20435;-93
2022/05/23 07:12:42;;;;;;;2.43;2.23;;;20.30;82.50;;;;;;5000362;28;20764;-93
2022/05/23 07:15:08;;;;;;;1.43;1.33;;;20.40;82.80;;;;;;4990548;28;20840;-93
2022/05/23 07:17:34;;;;;;;1.20;1.10;;;20.50;82.70;;;;;;4971228;28;20590;-93
2022/05/23 07:20:01;;;;;;;1.40;1.30;;;20.50;83.30;;;;;;4970980;28;20673;-91
2022/05/23 07:22:27;;;;;;;1.30;1.20;;;20.60;82.80;;;;;;4968106;28;20206;-92
2022/05/23 07:24:53;;;;;;;1.30;1.27;;;20.60;82.60;;;;;;4977336;28;20448;-92
2022/05/23 07:27:26;;;;;;;1.67;1.40;;;20.70;82.50;;;;;;4975907;28;20859;-92
2022/05/23 07:29:52;;;;;;;1.60;1.20;;;20.80;81.90;;;;;;4973149;28;20476;-91
2022/05/23 07:32:18;;;;;;;1.30;1.23;;;20.90;81.80;;;;;;4976760;28;20450;-92
2022/05/23 07:34:44;;;;;;;1.40;1.30;;;20.90;82.10;;;;;;4974908;28;20183;-91
2022/05/23 07:37:10;;;;;;;2.03;1.20;;;21.00;81.40;;;;;;4975394;28;20204;-92
2022/05/23 07:39:37;;;;;;;2.50;1.50;;;21.10;81.70;;;;;;4975563;28;20422;-93
2022/05/23 07:42:06;;;;;;;1.50;1.40;;;21.20;81.80;;;;;;4971095;28;20454;-93
2022/05/23 07:44:32;;;;;;;2.37;1.23;;;21.20;80.20;;;;;;4966871;28;20441;-91
2022/05/23 07:46:58;;;;;;;1.40;1.30;;;21.30;80.50;;;;;;4973903;28;20572;-92
2022/05/23 07:49:25;;;;;;;2.83;1.60;;;21.40;81.30;;;;;;4976784;28;20545;-91
2022/05/23 07:51:53;;;;;;;4.10;2.70;;;21.50;80.40;;;;;;4970268;28;20234;-90
2022/05/23 08:02:34;;;;;;;1.77;1.53;;;21.70;80.10;;;;;;4978264;28;20449;-91
2022/05/23 08:04:59;;;;;;;1.00;0.90;;;21.80;79.50;;;;;;4981042;28;20453;-92
2022/05/23 08:07:28;;;;;;;1.10;1.10;;;21.80;79.30;;;;;;4971515;28;20462;-90
2022/05/23 08:09:55;;;;;;;1.30;1.20;;;21.90;79.30;;;;;;4973140;28;20436;-91
2022/05/23 08:12:21;;;;;;;1.87;1.20;;;21.90;79.90;;;;;;4974862;28;20548;-92
2022/05/23 08:14:47;;;;;;;1.27;1.17;;;22.00;79.80;;;;;;4976185;28;20426;-91
2022/05/23 08:17:13;;;;;;;1.73;1.00;;;22.10;78.90;;;;;;4977969;28;20486;-91
2022/05/23 08:19:39;;;;;;;1.93;1.50;;;22.10;78.90;;;;;;4974232;28;20177;-91
2022/05/23 08:22:06;;;;;;;1.30;1.17;;;22.20;78.50;;;;;;4978235;28;20449;-92
2022/05/23 08:24:33;;;;;;;1.03;1.00;;;22.30;79.00;;;;;;4976350;28;20505;-91
2022/05/23 08:26:59;;;;;;;2.43;1.53;;;22.40;78.50;;;;;;4970776;28;20517;-91
2022/05/23 08:29:25;;;;;;;3.80;1.47;;;22.50;78.10;;;;;;4968715;28;20474;-91
2022/05/23 08:31:51;;;;;;;1.87;1.33;;;22.60;77.80;;;;;;4973897;28;20806;-92
2022/05/23 08:34:17;;;;;;;3.63;1.40;;;22.70;77.60;;;;;;4980095;28;20436;-92
2022/05/23 08:36:43;;;;;;;1.70;1.53;;;22.80;77.00;;;;;;4974370;28;20442;-92
2022/05/23 08:39:09;;;;;;;1.60;1.50;;;22.90;77.10;;;;;;4979317;28;20638;-91
2022/05/23 08:41:44;;;;;;;2.40;1.53;;;23.00;77.40;;;;;;4973244;28;20302;-91
2022/05/23 08:44:10;;;;;;;2.10;1.90;;;23.10;75.60;;;;;;4968556;28;20518;-91
2022/05/23 08:46:55;;;;;;;1.70;1.60;;;23.10;74.80;;;;;;4963445;28;20562;-92
2022/05/23 08:49:29;;;;;;;1.80;1.40;;;23.10;75.80;;;;;;4970818;28;20445;-93
2022/05/23 08:52:13;;;;;;;2.30;1.67;;;23.10;75.30;;;;;;4969951;28;20453;-92
2022/05/23 08:54:50;;;;;;;1.23;1.23;;;23.10;74.80;;;;;;4975559;28;20751;-91
2022/05/23 08:57:35;;;;;;;1.93;1.60;;;23.20;76.20;;;;;;4968515;28;20459;-92
2022/05/23 09:00:07;;;;;;;1.47;1.37;;;23.20;76.70;;;;;;4976606;28;20513;-92
2022/05/23 09:02:39;;;;;;;1.90;1.50;;;23.30;77.20;;;;;;4985971;28;20847;-93
2022/05/23 09:05:18;;;;;;;1.40;1.30;;;23.40;75.80;;;;;;5007201;28;20514;-92
2022/05/23 09:07:58;;;;;;;1.60;1.50;;;23.50;75.50;;;;;;4976827;28;20450;-92
2022/05/23 09:10:49;;;;;;;1.70;1.60;;;23.60;75.60;;;;;;4976822;28;20497;-92
2022/05/23 09:13:17;;;;;;;2.67;1.93;;;23.60;74.30;;;;;;4975461;28;20444;-92
2022/05/23 09:15:46;;;;;;;1.50;1.40;;;23.60;74.80;;;;;;4983558;28;20554;-93
2022/05/23 09:18:19;;;;;;;1.43;1.33;;;23.70;75.30;;;;;;4995699;28;21178;-91
2022/05/23 09:21:01;;;;;;;1.80;1.50;;;23.70;74.80;;;;;;4997021;28;20456;-92
2022/05/23 09:23:38;;;;;;;1.30;1.20;;;23.70;74.00;;;;;;5014129;28;20456;-92
2022/05/23 09:26:12;;;;;;;1.37;1.27;;;23.60;74.60;;;;;;4994010;28;20436;-93
2022/05/23 09:28:39;;;;;;;1.67;1.30;;;23.70;74.10;;;;;;4997090;28;20426;-92
2022/05/23 09:31:24;;;;;;;1.67;1.57;;;23.80;74.00;;;;;;4995096;28;20469;-93
2022/05/23 09:33:52;;;;;;;1.30;1.20;;;23.80;76.10;;;;;;4993044;28;20970;-92
2022/05/23 09:36:27;;;;;;;1.40;1.30;;;23.80;76.80;;;;;;5002257;28;20528;-94
2022/05/23 09:38:59;;;;;;;1.50;1.40;;;23.90;72.70;;;;;;4998225;28;21076;-93
2022/05/23 09:49:57;;;;;;;2.50;1.27;;;24.10;72.00;;;;;;5016946;28;20468;-93
2022/05/23 09:52:32;;;;;;;1.40;1.30;;;24.20;71.90;;;;;;5000401;28;20513;-93
2022/05/23 09:55:13;;;;;;;1.00;0.90;;;24.30;72.20;;;;;;5012909;28;20218;-93
2022/05/23 09:57:50;;;;;;;3.00;1.50;;;24.30;71.90;;;;;;4995128;28;20480;-91
2022/05/23 10:00:20;;;;;;;4.83;1.43;;;24.30;71.80;;;;;;4993453;28;20507;-93
2022/05/23 10:03:13;;;;;;;3.13;1.43;;;24.40;72.80;;;;;;4995242;28;20467;-93
2022/05/23 10:05:46;;;;;;;1.43;1.30;;;24.40;73.10;;;;;;5012296;28;20430;-94
2022/05/23 10:08:11;;;;;;;2.60;1.47;;;24.40;71.00;;;;;;4996423;28;20829;-93
2022/05/23 10:10:53;;;;;;;1.50;1.40;;;24.30;71.10;;;;;;5014041;28;20487;-94
2022/05/23 10:13:19;;;;;;;1.87;1.20;;;24.30;70.70;;;;;;5013689;28;20211;-93
2022/05/23 10:15:49;;;;;;;1.70;1.60;;;24.20;70.70;;;;;;5006279;28;20473;-93
2022/05/23 10:18:24;;;;;;;1.70;1.40;;;24.30;70.70;;;;;;4990321;28;20209;-93
2022/05/23 10:20:51;;;;;;;1.33;1.23;;;24.30;71.10;;;;;;5014477;28;20472;-93
2022/05/23 10:23:25;;;;;;;0.83;0.83;;;24.30;71.30;;;;;;4995015;28;20473;-92
2022/05/23 10:25:57;;;;;;;1.53;1.10;;;24.30;71.20;;;;;;4995185;28;20488;-91
2022/05/23 10:28:44;;;;;;;1.43;1.27;;;24.40;70.60;;;;;;5015732;28;20447;-92
2022/05/23 10:31:25;;;;;;;1.47;1.37;;;24.50;70.30;;;;;;5007628;28;20515;-92
2022/05/23 10:34:10;;;;;;;4.40;1.47;;;24.60;69.80;;;;;;4997349;28;20792;-93
2022/05/23 10:36:38;;;;;;;1.40;1.30;;;24.60;69.40;;;;;;5009317;28;20454;-93
2022/05/23 10:42:16;;;;;;;1.10;1.00;;;24.70;69.00;;;;;;5004397;28;20459;-92
2022/05/23 10:45:06;;;;;;;2.83;1.37;;;24.70;69.10;;;;;;4989082;28;20935;-92
2022/05/23 10:47:50;;;;;;;1.23;1.07;;;24.80;69.30;;;;;;5006715;28;20467;-92
2022/05/23 10:50:44;;;;;;;3.37;1.63;;;24.80;68.70;;;;;;4990062;28;20478;-92
2022/05/23 10:53:10;;;;;;;1.90;0.90;;;24.80;68.60;;;;;;5013311;28;20810;-93
2022/05/23 10:55:38;;;;;;;1.37;1.27;;;24.80;67.90;;;;;;4990520;28;20546;-92
2022/05/23 10:58:24;;;;;;;1.37;1.27;;;24.80;67.70;;;;;;4993745;28;20272;-93
2022/05/23 11:01:03;;;;;;;1.10;1.10;;;24.80;68.80;;;;;;5008248;28;20446;-92
2022/05/23 11:03:37;;;;;;;2.40;1.40;;;24.80;69.60;;;;;;5011972;28;20640;-91
2022/05/23 11:06:39;;;;;;;1.73;1.40;;;24.90;67.90;;;;;;4992525;28;20499;-92
2022/05/23 11:09:45;;;;;;;1.50;1.20;;;24.90;68.80;;;;;;4995027;28;20467;-93
2022/05/23 11:12:23;;;;;;;3.33;1.30;;;24.90;69.20;;;;;;5006933;28;21041;-93
2022/05/23 11:15:23;;;;;;;1.80;1.30;;;25.00;69.10;;;;;;4996701;28;20415;-92
2022/05/23 11:18:12;;;;;;;1.50;1.30;;;25.00;68.30;;;;;;5011661;28;20921;-91
2022/05/23 11:20:41;;;;;;;1.37;1.27;;;25.10;69.10;;;;;;4994410;28;20444;-91
2022/05/23 11:23:32;;;;;;;1.13;1.03;;;25.20;69.80;;;;;;4986548;28;20452;-92
2022/05/23 11:26:23;;;;;;;2.57;1.33;;;25.20;68.70;;;;;;4991625;28;20782;-92
2022/05/23 11:34:57;;;;;;;1.93;1.30;;;25.30;67.80;;;;;;5006456;28;20430;-92
2022/05/23 11:40:08;;;;;;;1.20;1.07;;;25.30;67.00;;;;;;5015066;28;20897;-92
2022/05/23 11:42:49;;;;;;;1.53;1.37;;;25.30;67.10;;;;;;4986765;28;20452;-91
2022/05/23 11:48:39;;;;;;;1.47;1.37;;;25.30;67.60;;;;;;5009378;28;20458;-93
2022/05/23 11:51:25;;;;;;;2.30;1.10;;;25.30;67.60;;;;;;4994593;28;20460;-91
2022/05/23 11:54:14;;;;;;;1.40;1.30;;;25.30;67.60;;;;;;4976309;28;20964;-91
2022/05/23 11:57:15;;;;;;;2.17;1.70;;;25.30;67.50;;;;;;4995991;28;20897;-91
2022/05/23 11:59:40;;;;;;;1.77;1.30;;;25.40;67.20;;;;;;4993264;28;20446;-92
2022/05/23 12:02:10;;;;;;;1.50;1.40;;;25.40;66.10;;;;;;5007686;28;20622;-91
2022/05/23 12:05:08;;;;;;;1.53;1.43;;;25.40;67.10;;;;;;5008193;28;20183;-91
2022/05/23 12:07:34;;;;;;;1.70;1.30;;;25.50;67.30;;;;;;4993466;28;20465;-93
2022/05/23 12:10:22;;;;;;;1.57;1.47;;;25.50;67.00;;;;;;5006318;28;20467;-92
2022/05/23 12:13:18;;;;;;;2.03;1.50;;;25.50;66.70;;;;;;5010900;28;20210;-93
2022/05/23 12:15:46;;;;;;;1.30;1.10;;;25.50;66.70;;;;;;5013481;28;20483;-92
2022/05/23 12:18:13;;;;;;;1.00;1.00;;;25.40;66.50;;;;;;4999977;28;20513;-92
2022/05/23 12:20:51;;;;;;;1.40;1.30;;;25.40;66.50;;;;;;4983956;28;20437;-92
2022/05/23 12:23:39;;;;;;;1.27;1.17;;;25.30;66.40;;;;;;5006149;28;20494;-92
2022/05/23 12:26:25;;;;;;;1.60;1.50;;;25.30;66.30;;;;;;5017880;28;20423;-92
2022/05/23 12:28:57;;;;;;;1.47;1.30;;;25.20;66.30;;;;;;4999139;28;20442;-92
2022/05/23 12:31:27;;;;;;;1.30;1.20;;;25.20;66.40;;;;;;5016308;28;20650;-93
2022/05/23 12:34:13;;;;;;;1.40;1.30;;;25.10;65.90;;;;;;5007678;28;20550;-92
2022/05/23 12:36:52;;;;;;;1.20;1.10;;;25.10;66.70;;;;;;4990951;28;20458;-93
2022/05/23 12:39:44;;;;;;;1.40;1.30;;;25.10;67.10;;;;;;4997315;28;20860;-93
2022/05/23 12:42:42;;;;;;;1.20;1.10;;;25.10;67.20;;;;;;5001871;28;20463;-93
2022/05/23 12:45:45;;;;;;;2.10;1.30;;;25.10;67.00;;;;;;4993332;28;20529;-92
2022/05/23 12:48:28;;;;;;;1.50;1.40;;;25.10;66.60;;;;;;5008403;28;21043;-93
2022/05/23 12:54:54;;;;;;;1.20;1.10;;;25.20;67.00;;;;;;4999590;28;20438;-92
2022/05/23 12:57:50;;;;;;;1.83;1.57;;;25.20;65.90;;;;;;5004577;28;20451;-92
2022/05/23 13:00:19;;;;;;;1.33;1.23;;;25.10;66.20;;;;;;5003644;28;20574;-93
2022/05/23 13:02:51;;;;;;;1.43;1.33;;;25.10;66.30;;;;;;4996916;28;20558;-91
2022/05/23 13:05:33;;;;;;;2.47;1.73;;;25.00;66.50;;;;;;5011340;28;20433;-91
2022/05/23 13:08:26;;;;;;;1.50;1.40;;;25.00;66.90;;;;;;4993066;28;20893;-92
2022/05/23 13:11:00;;;;;;;1.30;1.20;;;25.00;66.70;;;;;;4998722;28;20820;-91
2022/05/23 13:13:42;;;;;;;1.70;1.60;;;25.00;67.10;;;;;;5004545;28;20455;-92
2022/05/23 13:16:29;;;;;;;1.30;1.20;;;25.10;67.30;;;;;;4983840;28;20491;-91
2022/05/23 13:22:06;;;;;;;1.63;1.37;;;25.10;66.30;;;;;;5009763;28;20851;-91
2022/05/23 13:24:54;;;;;;;1.30;1.20;;;25.10;66.20;;;;;;5005564;28;20418;-91
2022/05/23 13:27:22;;;;;;;1.47;1.37;;;25.20;66.20;;;;;;4995747;28;20456;-92
2022/05/23 13:30:17;;;;;;;8.10;1.70;;;25.20;66.30;;;;;;4992056;28;20467;-91
2022/05/23 13:32:44;;;;;;;3.67;1.53;;;25.20;66.10;;;;;;5009465;28;20974;-92
2022/05/23 13:35:23;;;;;;;2.63;1.60;;;25.20;66.20;;;;;;4992330;28;20443;-91
2022/05/23 13:37:50;;;;;;;1.80;1.30;;;25.20;66.50;;;;;;4990861;28;20436;-95
2022/05/23 13:40:26;;;;;;;1.50;1.40;;;25.20;66.80;;;;;;4979483;28;20484;-92
2022/05/23 13:43:31;;;;;;;1.33;1.23;;;25.20;66.50;;;;;;4993224;28;20529;-91
2022/05/23 13:46:25;;;;;;;1.60;1.50;;;25.20;66.60;;;;;;5016419;28;20561;-91
2022/05/23 13:49:05;;;;;;;1.40;1.30;;;25.20;66.50;;;;;;4995606;28;20447;-93
2022/05/23 13:51:43;;;;;;;1.33;1.20;;;25.20;66.30;;;;;;4993854;28;20952;-93
2022/05/23 13:54:12;;;;;;;1.73;1.60;;;25.20;67.20;;;;;;4997455;28;20506;-93
2022/05/23 13:56:42;;;;;;;1.37;1.27;;;25.20;66.90;;;;;;4992999;28;21018;-90
2022/05/23 13:59:14;;;;;;;2.60;1.30;;;25.30;66.40;;;;;;5011742;28;20443;-89
2022/05/23 14:01:50;;;;;;;2.20;1.30;;;25.30;66.20;;;;;;4982162;28;20470;-93
2022/05/23 14:04:21;;;;;;;1.53;1.43;;;25.30;66.90;;;;;;4993973;28;20425;-92
2022/05/23 14:06:56;;;;;;;1.33;1.23;;;25.30;66.50;;;;;;4989257;28;20639;-91
2022/05/23 14:09:22;;;;;;;1.70;1.40;;;25.20;66.40;;;;;;4986556;28;20525;-91
2022/05/23 14:12:04;;;;;;;2.10;1.60;;;25.20;66.30;;;;;;5006925;28;20945;-91
2022/05/23 14:14:39;;;;;;;2.00;1.23;;;25.20;66.80;;;;;;4985464;28;20554;-92
2022/05/23 14:17:49;;;;;;;1.50;1.40;;;25.20;68.10;;;;;;4984416;28;20514;-93